sensor_id;sensor_type;location;lat;lon;timestamp;temperature;humidity
21439;DHT22;10880;50.302;18.736;2023-01-01T00:01:47;14.40;62.70
21439;DHT22;10880;50.302;18.736;2023-01-01T00:04:14;14.40;62.50
21439;DHT22;10880;50.302;18.736;2023-01-01T00:06:42;14.40;62.80
21439;DHT22;10880;50.302;18.736;2023-01-01T00:09:09;14.40;63.20
21439;DHT22;10880;50.302;18.736;2023-01-01T00:11:54;14.40;63.10
21439;DHT22;10880;50.302;18.736;2023-01-01T00:14:25;14.40;62.60
21439;DHT22;10880;50.302;18.736;2023-01-01T00:16:55;14.40;63.10
21439;DHT22;10880;50.302;18.736;2023-01-01T00:21:48;14.40;62.60
21439;DHT22;10880;50.302;18.736;2023-01-01T00:24:18;14.40;62.90
21439;DHT22;10880;50.302;18.736;2023-01-01T00:26:44;14.30;62.60
21439;DHT22;10880;50.302;18.736;2023-01-01T00:29:10;14.30;62.40
21439;DHT22;10880;50.302;18.736;2023-01-01T00:31:37;14.30;62.30
21439;DHT22;10880;50.302;18.736;2023-01-01T00:34:04;14.30;62.40
21439;DHT22;10880;50.302;18.736;2023-01-01T00:36:33;14.30;62.30
21439;DHT22;10880;50.302;18.736;2023-01-01T00:39:01;14.30;62.30
21439;DHT22;10880;50.302;18.736;2023-01-01T00:41:28;14.20;62.80
21439;DHT22;10880;50.302;18.736;2023-01-01T00:43:55;14.20;62.20
21439;DHT22;10880;50.302;18.736;2023-01-01T00:46:21;14.20;62.20
21439;DHT22;10880;50.302;18.736;2023-01-01T00:48:49;14.20;62.30
21439;DHT22;10880;50.302;18.736;2023-01-01T00:51:15;14.20;62.30
21439;DHT22;10880;50.302;18.736;2023-01-01T00:53:41;14.20;62.50
21439;DHT22;10880;50.302;18.736;2023-01-01T00:58:35;14.10;62.50
21439;DHT22;10880;50.302;18.736;2023-01-01T01:03:28;14.10;62.60
21439;DHT22;10880;50.302;18.736;2023-01-01T01:08:28;14.10;62.50
21439;DHT22;10880;50.302;18.736;2023-01-01T01:11:10;14.10;63.10
21439;DHT22;10880;50.302;18.736;2023-01-01T01:13:37;14.10;63.20
21439;DHT22;10880;50.302;18.736;2023-01-01T01:16:27;14.10;63.10
21439;DHT22;10880;50.302;18.736;2023-01-01T01:18:56;14.10;63.20
21439;DHT22;10880;50.302;18.736;2023-01-01T01:21:25;14.10;63.00
21439;DHT22;10880;50.302;18.736;2023-01-01T01:23:53;14.10;63.00
21439;DHT22;10880;50.302;18.736;2023-01-01T01:26:22;14.10;62.80
21439;DHT22;10880;50.302;18.736;2023-01-01T01:28:55;14.10;63.00
21439;DHT22;10880;50.302;18.736;2023-01-01T01:31:23;14.10;62.40
21439;DHT22;10880;50.302;18.736;2023-01-01T01:33:51;14.10;63.00
21439;DHT22;10880;50.302;18.736;2023-01-01T01:36:18;14.10;62.40
21439;DHT22;10880;50.302;18.736;2023-01-01T01:38:46;14.10;62.80
21439;DHT22;10880;50.302;18.736;2023-01-01T01:41:19;14.10;62.50
21439;DHT22;10880;50.302;18.736;2023-01-01T01:46:43;14.10;63.10
21439;DHT22;10880;50.302;18.736;2023-01-01T01:49:34;14.10;63.00
21439;DHT22;10880;50.302;18.736;2023-01-01T01:52:03;14.10;63.10
21439;DHT22;10880;50.302;18.736;2023-01-01T01:54:30;14.10;62.70
21439;DHT22;10880;50.302;18.736;2023-01-01T01:57:07;14.10;62.40
21439;DHT22;10880;50.302;18.736;2023-01-01T01:59:43;14.10;63.00
21439;DHT22;10880;50.302;18.736;2023-01-01T02:02:41;14.10;62.90
21439;DHT22;10880;50.302;18.736;2023-01-01T02:05:05;14.10;63.00
21439;DHT22;10880;50.302;18.736;2023-01-01T02:07:33;14.10;62.70
21439;DHT22;10880;50.302;18.736;2023-01-01T02:10:01;14.10;62.70
21439;DHT22;10880;50.302;18.736;2023-01-01T02:12:28;14.10;62.70
21439;DHT22;10880;50.302;18.736;2023-01-01T02:14:57;14.10;62.00
21439;DHT22;10880;50.302;18.736;2023-01-01T02:17:34;14.00;62.50
21439;DHT22;10880;50.302;18.736;2023-01-01T02:31:37;13.90;62.50
21439;DHT22;10880;50.302;18.736;2023-01-01T02:34:08;13.90;62.50
21439;DHT22;10880;50.302;18.736;2023-01-01T02:36:40;13.80;62.60
21439;DHT22;10880;50.302;18.736;2023-01-01T02:39:14;13.80;62.70
21439;DHT22;10880;50.302;18.736;2023-01-01T02:41:45;13.80;62.70
21439;DHT22;10880;50.302;18.736;2023-01-01T02:44:12;13.80;62.80
21439;DHT22;10880;50.302;18.736;2023-01-01T02:46:39;13.80;62.30
21439;DHT22;10880;50.302;18.736;2023-01-01T02:49:06;13.80;62.30
21439;DHT22;10880;50.302;18.736;2023-01-01T02:51:47;13.80;62.60
21439;DHT22;10880;50.302;18.736;2023-01-01T03:05:34;13.80;62.60
21439;DHT22;10880;50.302;18.736;2023-01-01T03:08:29;13.80;63.00
21439;DHT22;10880;50.302;18.736;2023-01-01T03:11:08;13.80;62.80
21439;DHT22;10880;50.302;18.736;2023-01-01T03:14:00;13.80;62.80
21439;DHT22;10880;50.302;18.736;2023-01-01T03:16:34;13.80;62.80
21439;DHT22;10880;50.302;18.736;2023-01-01T03:19:18;13.80;62.70
21439;DHT22;10880;50.302;18.736;2023-01-01T03:21:56;13.80;62.80
21439;DHT22;10880;50.302;18.736;2023-01-01T03:27:05;13.70;62.30
21439;DHT22;10880;50.302;18.736;2023-01-01T03:29:35;13.70;62.50
21439;DHT22;10880;50.302;18.736;2023-01-01T03:32:09;13.70;62.50
21439;DHT22;10880;50.302;18.736;2023-01-01T03:34:42;13.70;62.30
21439;DHT22;10880;50.302;18.736;2023-01-01T03:37:14;13.70;62.50
21439;DHT22;10880;50.302;18.736;2023-01-01T03:40:01;13.60;62.40
21439;DHT22;10880;50.302;18.736;2023-01-01T03:42:34;13.60;62.40
21439;DHT22;10880;50.302;18.736;2023-01-01T03:45:10;13.60;62.30
21439;DHT22;10880;50.302;18.736;2023-01-01T03:47:37;13.60;62.40
21439;DHT22;10880;50.302;18.736;2023-01-01T03:50:05;13.50;61.80
21439;DHT22;10880;50.302;18.736;2023-01-01T03:55:21;13.50;62.50
21439;DHT22;10880;50.302;18.736;2023-01-01T04:00:32;13.40;62.50
21439;DHT22;10880;50.302;18.736;2023-01-01T04:03:07;13.40;62.50
21439;DHT22;10880;50.302;18.736;2023-01-01T04:05:38;13.40;62.60
21439;DHT22;10880;50.302;18.736;2023-01-01T04:08:06;13.40;62.20
21439;DHT22;10880;50.302;18.736;2023-01-01T04:10:36;13.40;61.90
21439;DHT22;10880;50.302;18.736;2023-01-01T04:13:06;13.40;62.80
21439;DHT22;10880;50.302;18.736;2023-01-01T04:15:33;13.40;62.30
21439;DHT22;10880;50.302;18.736;2023-01-01T04:18:06;13.30;62.80
21439;DHT22;10880;50.302;18.736;2023-01-01T04:20:33;13.40;63.00
21439;DHT22;10880;50.302;18.736;2023-01-01T04:23:00;13.40;62.60
21439;DHT22;10880;50.302;18.736;2023-01-01T04:25:27;13.40;62.90
21439;DHT22;10880;50.302;18.736;2023-01-01T04:27:56;13.40;63.00
21439;DHT22;10880;50.302;18.736;2023-01-01T04:30:29;13.40;62.90
21439;DHT22;10880;50.302;18.736;2023-01-01T04:32:55;13.40;63.00
21439;DHT22;10880;50.302;18.736;2023-01-01T04:35:22;13.40;62.60
21439;DHT22;10880;50.302;18.736;2023-01-01T04:37:48;13.40;62.50
21439;DHT22;10880;50.302;18.736;2023-01-01T04:40:14;13.40;62.60
21439;DHT22;10880;50.302;18.736;2023-01-01T04:42:41;13.40;63.70
21439;DHT22;10880;50.302;18.736;2023-01-01T04:45:08;13.40;63.00
21439;DHT22;10880;50.302;18.736;2023-01-01T04:47:40;13.50;63.30
21439;DHT22;10880;50.302;18.736;2023-01-01T04:50:07;13.50;63.00
21439;DHT22;10880;50.302;18.736;2023-01-01T04:52:33;13.50;63.20
21439;DHT22;10880;50.302;18.736;2023-01-01T04:54:59;13.50;63.10
21439;DHT22;10880;50.302;18.736;2023-01-01T04:57:29;13.50;62.90
21439;DHT22;10880;50.302;18.736;2023-01-01T04:59:55;13.60;63.60
21439;DHT22;10880;50.302;18.736;2023-01-01T05:02:25;13.60;63.50
21439;DHT22;10880;50.302;18.736;2023-01-01T05:04:54;13.60;63.40
21439;DHT22;10880;50.302;18.736;2023-01-01T05:07:20;13.70;63.10
21439;DHT22;10880;50.302;18.736;2023-01-01T05:09:47;13.70;63.20
21439;DHT22;10880;50.302;18.736;2023-01-01T05:12:13;13.70;63.00
21439;DHT22;10880;50.302;18.736;2023-01-01T05:14:40;13.70;63.50
21439;DHT22;10880;50.302;18.736;2023-01-01T05:17:06;13.80;63.00
21439;DHT22;10880;50.302;18.736;2023-01-01T05:19:33;13.80;62.90
21439;DHT22;10880;50.302;18.736;2023-01-01T05:21:59;13.80;63.00
21439;DHT22;10880;50.302;18.736;2023-01-01T05:24:25;13.90;63.00
21439;DHT22;10880;50.302;18.736;2023-01-01T05:26:52;13.90;63.00
21439;DHT22;10880;50.302;18.736;2023-01-01T05:29:18;13.90;63.00
21439;DHT22;10880;50.302;18.736;2023-01-01T05:31:45;14.00;63.00
21439;DHT22;10880;50.302;18.736;2023-01-01T05:34:12;14.00;63.40
21439;DHT22;10880;50.302;18.736;2023-01-01T05:36:38;14.00;63.00
21439;DHT22;10880;50.302;18.736;2023-01-01T05:39:10;14.10;63.10
21439;DHT22;10880;50.302;18.736;2023-01-01T05:41:37;14.10;63.40
21439;DHT22;10880;50.302;18.736;2023-01-01T05:44:05;14.20;62.80
21439;DHT22;10880;50.302;18.736;2023-01-01T05:48:58;14.20;62.70
21439;DHT22;10880;50.302;18.736;2023-01-01T05:51:27;14.20;63.00
21439;DHT22;10880;50.302;18.736;2023-01-01T05:53:54;14.30;63.30
21439;DHT22;10880;50.302;18.736;2023-01-01T05:56:21;14.30;62.90
21439;DHT22;10880;50.302;18.736;2023-01-01T05:58:51;14.30;63.00
21439;DHT22;10880;50.302;18.736;2023-01-01T06:01:26;14.40;62.60
21439;DHT22;10880;50.302;18.736;2023-01-01T06:03:54;14.40;63.00
21439;DHT22;10880;50.302;18.736;2023-01-01T06:06:24;14.40;62.80
21439;DHT22;10880;50.302;18.736;2023-01-01T06:08:52;14.40;62.70
21439;DHT22;10880;50.302;18.736;2023-01-01T06:11:19;14.40;62.60
21439;DHT22;10880;50.302;18.736;2023-01-01T06:13:46;14.40;62.60
21439;DHT22;10880;50.302;18.736;2023-01-01T06:16:13;14.40;62.20
21439;DHT22;10880;50.302;18.736;2023-01-01T06:18:43;14.40;62.50
21439;DHT22;10880;50.302;18.736;2023-01-01T06:21:15;14.40;62.10
21439;DHT22;10880;50.302;18.736;2023-01-01T06:23:42;14.40;62.60
21439;DHT22;10880;50.302;18.736;2023-01-01T06:26:23;14.40;62.10
21439;DHT22;10880;50.302;18.736;2023-01-01T06:28:50;14.50;63.00
21439;DHT22;10880;50.302;18.736;2023-01-01T06:31:19;14.50;62.00
21439;DHT22;10880;50.302;18.736;2023-01-01T06:33:47;14.50;62.50
21439;DHT22;10880;50.302;18.736;2023-01-01T06:36:16;14.50;61.90
21439;DHT22;10880;50.302;18.736;2023-01-01T06:38:45;14.50;62.50
21439;DHT22;10880;50.302;18.736;2023-01-01T06:41:17;14.50;62.40
21439;DHT22;10880;50.302;18.736;2023-01-01T06:43:47;14.50;61.90
21439;DHT22;10880;50.302;18.736;2023-01-01T06:49:14;14.50;62.10
21439;DHT22;10880;50.302;18.736;2023-01-01T06:51:42;14.50;61.70
21439;DHT22;10880;50.302;18.736;2023-01-01T06:54:09;14.50;62.40
21439;DHT22;10880;50.302;18.736;2023-01-01T06:56:36;14.60;62.50
21439;DHT22;10880;50.302;18.736;2023-01-01T06:59:03;14.60;61.90
21439;DHT22;10880;50.302;18.736;2023-01-01T07:01:32;14.60;61.90
21439;DHT22;10880;50.302;18.736;2023-01-01T07:04:03;14.60;62.50
21439;DHT22;10880;50.302;18.736;2023-01-01T07:06:31;14.60;62.40
21439;DHT22;10880;50.302;18.736;2023-01-01T07:09:01;14.60;62.40
21439;DHT22;10880;50.302;18.736;2023-01-01T07:11:28;14.60;62.20
21439;DHT22;10880;50.302;18.736;2023-01-01T07:13:54;14.60;62.00
21439;DHT22;10880;50.302;18.736;2023-01-01T07:16:21;14.60;61.70
21439;DHT22;10880;50.302;18.736;2023-01-01T07:18:48;14.70;61.70
21439;DHT22;10880;50.302;18.736;2023-01-01T07:21:43;14.70;61.90
21439;DHT22;10880;50.302;18.736;2023-01-01T07:24:13;14.60;62.10
21439;DHT22;10880;50.302;18.736;2023-01-01T07:26:39;14.60;62.00
21439;DHT22;10880;50.302;18.736;2023-01-01T07:29:06;14.60;61.40
21439;DHT22;10880;50.302;18.736;2023-01-01T07:31:37;14.60;61.90
21439;DHT22;10880;50.302;18.736;2023-01-01T07:34:05;14.60;61.90
21439;DHT22;10880;50.302;18.736;2023-01-01T07:36:32;14.60;61.90
21439;DHT22;10880;50.302;18.736;2023-01-01T07:39:01;14.60;61.60
21439;DHT22;10880;50.302;18.736;2023-01-01T07:41:28;14.60;61.30
21439;DHT22;10880;50.302;18.736;2023-01-01T07:43:54;13.80;60.90
21439;DHT22;10880;50.302;18.736;2023-01-01T07:46:21;14.60;61.30
21439;DHT22;10880;50.302;18.736;2023-01-01T07:48:47;14.60;61.50
21439;DHT22;10880;50.302;18.736;2023-01-01T07:51:14;14.60;61.50
21439;DHT22;10880;50.302;18.736;2023-01-01T07:53:40;14.60;61.20
21439;DHT22;10880;50.302;18.736;2023-01-01T07:56:07;14.60;61.40
21439;DHT22;10880;50.302;18.736;2023-01-01T07:58:37;14.60;61.60
21439;DHT22;10880;50.302;18.736;2023-01-01T08:01:03;14.50;61.90
21439;DHT22;10880;50.302;18.736;2023-01-01T08:03:30;14.50;61.30
21439;DHT22;10880;50.302;18.736;2023-01-01T08:05:56;14.50;61.40
21439;DHT22;10880;50.302;18.736;2023-01-01T08:08:23;14.50;61.70
21439;DHT22;10880;50.302;18.736;2023-01-01T08:10:50;14.50;61.50
21439;DHT22;10880;50.302;18.736;2023-01-01T08:13:16;14.50;61.20
21439;DHT22;10880;50.302;18.736;2023-01-01T08:15:43;14.50;61.20
21439;DHT22;10880;50.302;18.736;2023-01-01T08:18:09;14.50;61.40
21439;DHT22;10880;50.302;18.736;2023-01-01T08:20:39;14.50;61.50
21439;DHT22;10880;50.302;18.736;2023-01-01T08:25:32;14.50;61.40
21439;DHT22;10880;50.302;18.736;2023-01-01T08:27:59;14.50;61.60
21439;DHT22;10880;50.302;18.736;2023-01-01T08:32:52;14.50;61.30
21439;DHT22;10880;50.302;18.736;2023-01-01T08:35:19;14.50;61.60
21439;DHT22;10880;50.302;18.736;2023-01-01T08:37:45;14.50;62.00
21439;DHT22;10880;50.302;18.736;2023-01-01T08:40:12;14.50;61.50
21439;DHT22;10880;50.302;18.736;2023-01-01T08:42:39;14.50;61.50
21439;DHT22;10880;50.302;18.736;2023-01-01T08:45:06;14.50;61.50
21439;DHT22;10880;50.302;18.736;2023-01-01T08:49:59;14.50;61.60
21439;DHT22;10880;50.302;18.736;2023-01-01T08:52:26;14.50;61.60
21439;DHT22;10880;50.302;18.736;2023-01-01T08:54:53;14.50;61.80
21439;DHT22;10880;50.302;18.736;2023-01-01T08:57:20;14.60;61.90
21439;DHT22;10880;50.302;18.736;2023-01-01T08:59:46;14.60;61.60
21439;DHT22;10880;50.302;18.736;2023-01-01T09:04:39;14.60;61.80
21439;DHT22;10880;50.302;18.736;2023-01-01T09:07:06;14.60;61.90
21439;DHT22;10880;50.302;18.736;2023-01-01T09:09:35;14.70;61.90
21439;DHT22;10880;50.302;18.736;2023-01-01T09:12:02;14.70;62.50
21439;DHT22;10880;50.302;18.736;2023-01-01T09:14:34;14.70;62.50
21439;DHT22;10880;50.302;18.736;2023-01-01T09:17:01;14.70;62.00
21439;DHT22;10880;50.302;18.736;2023-01-01T09:21:55;14.80;61.90
21439;DHT22;10880;50.302;18.736;2023-01-01T09:24:22;14.80;62.40
21439;DHT22;10880;50.302;18.736;2023-01-01T09:26:49;14.80;62.30
21439;DHT22;10880;50.302;18.736;2023-01-01T09:29:18;14.80;62.40
21439;DHT22;10880;50.302;18.736;2023-01-01T09:31:46;14.90;62.30
21439;DHT22;10880;50.302;18.736;2023-01-01T09:34:13;14.90;62.50
21439;DHT22;10880;50.302;18.736;2023-01-01T09:36:40;15.00;62.20
21439;DHT22;10880;50.302;18.736;2023-01-01T09:39:06;15.00;62.60
21439;DHT22;10880;50.302;18.736;2023-01-01T09:44:27;15.10;62.10
21439;DHT22;10880;50.302;18.736;2023-01-01T09:46:59;15.10;62.60
21439;DHT22;10880;50.302;18.736;2023-01-01T09:49:36;15.20;62.50
21439;DHT22;10880;50.302;18.736;2023-01-01T09:52:05;15.20;62.50
21439;DHT22;10880;50.302;18.736;2023-01-01T09:54:36;15.20;62.40
21439;DHT22;10880;50.302;18.736;2023-01-01T09:57:07;15.30;62.50
21439;DHT22;10880;50.302;18.736;2023-01-01T09:59:39;15.30;62.50
21439;DHT22;10880;50.302;18.736;2023-01-01T10:08:15;15.50;62.50
21439;DHT22;10880;50.302;18.736;2023-01-01T10:10:56;15.50;62.40
21439;DHT22;10880;50.302;18.736;2023-01-01T10:13:31;15.60;62.30
21439;DHT22;10880;50.302;18.736;2023-01-01T10:16:27;15.60;62.30
21439;DHT22;10880;50.302;18.736;2023-01-01T10:18:59;15.60;62.30
21439;DHT22;10880;50.302;18.736;2023-01-01T10:21:33;15.70;62.30
21439;DHT22;10880;50.302;18.736;2023-01-01T10:24:24;15.70;62.30
21439;DHT22;10880;50.302;18.736;2023-01-01T10:26:52;15.80;62.30
21439;DHT22;10880;50.302;18.736;2023-01-01T10:29:26;15.80;62.30
21439;DHT22;10880;50.302;18.736;2023-01-01T10:31:55;15.90;62.20
21439;DHT22;10880;50.302;18.736;2023-01-01T10:34:25;15.90;62.20
21439;DHT22;10880;50.302;18.736;2023-01-01T10:36:58;15.90;62.10
21439;DHT22;10880;50.302;18.736;2023-01-01T10:39:26;16.00;62.10
21439;DHT22;10880;50.302;18.736;2023-01-01T10:41:53;16.00;61.70
21439;DHT22;10880;50.302;18.736;2023-01-01T10:44:30;16.10;61.50
21439;DHT22;10880;50.302;18.736;2023-01-01T10:47:02;16.20;62.00
21439;DHT22;10880;50.302;18.736;2023-01-01T10:49:29;16.20;61.90
21439;DHT22;10880;50.302;18.736;2023-01-01T10:51:56;16.30;61.40
21439;DHT22;10880;50.302;18.736;2023-01-01T10:54:38;16.30;61.50
21439;DHT22;10880;50.302;18.736;2023-01-01T10:57:29;16.30;61.70
21439;DHT22;10880;50.302;18.736;2023-01-01T11:00:26;16.40;61.10
21439;DHT22;10880;50.302;18.736;2023-01-01T11:03:25;16.60;61.10
21439;DHT22;10880;50.302;18.736;2023-01-01T11:06:01;16.50;61.20
21439;DHT22;10880;50.302;18.736;2023-01-01T11:08:30;16.60;61.60
21439;DHT22;10880;50.302;18.736;2023-01-01T11:10:58;16.60;61.40
21439;DHT22;10880;50.302;18.736;2023-01-01T11:13:26;16.60;61.40
21439;DHT22;10880;50.302;18.736;2023-01-01T11:15:54;16.70;61.30
21439;DHT22;10880;50.302;18.736;2023-01-01T11:20:54;16.80;60.80
21439;DHT22;10880;50.302;18.736;2023-01-01T11:23:35;16.80;61.10
21439;DHT22;10880;50.302;18.736;2023-01-01T11:28:35;16.90;61.10
21439;DHT22;10880;50.302;18.736;2023-01-01T11:36:10;17.00;60.90
21439;DHT22;10880;50.302;18.736;2023-01-01T11:38:38;17.00;60.70
21439;DHT22;10880;50.302;18.736;2023-01-01T11:41:06;17.10;60.30
21439;DHT22;10880;50.302;18.736;2023-01-01T11:43:39;17.10;60.30
21439;DHT22;10880;50.302;18.736;2023-01-01T11:46:22;17.10;60.50
21439;DHT22;10880;50.302;18.736;2023-01-01T11:49:00;17.10;60.50
21439;DHT22;10880;50.302;18.736;2023-01-01T11:51:30;17.20;60.40
21439;DHT22;10880;50.302;18.736;2023-01-01T11:54:19;17.20;60.50
21439;DHT22;10880;50.302;18.736;2023-01-01T11:56:52;17.30;60.50
21439;DHT22;10880;50.302;18.736;2023-01-01T11:59:23;17.30;60.50
21439;DHT22;10880;50.302;18.736;2023-01-01T12:01:58;17.30;60.40
21439;DHT22;10880;50.302;18.736;2023-01-01T12:04:59;17.30;60.30
21439;DHT22;10880;50.302;18.736;2023-01-01T12:07:33;17.40;60.40
21439;DHT22;10880;50.302;18.736;2023-01-01T12:10:12;17.40;60.20
21439;DHT22;10880;50.302;18.736;2023-01-01T12:12:50;17.40;59.70
21439;DHT22;10880;50.302;18.736;2023-01-01T12:18:12;17.50;59.40
21439;DHT22;10880;50.302;18.736;2023-01-01T12:21:04;17.50;59.70
21439;DHT22;10880;50.302;18.736;2023-01-01T12:23:34;17.50;59.60
21439;DHT22;10880;50.302;18.736;2023-01-01T12:29:30;17.60;59.60
21439;DHT22;10880;50.302;18.736;2023-01-01T12:32:06;17.60;59.40
21439;DHT22;10880;50.302;18.736;2023-01-01T12:43:31;17.70;58.80
21439;DHT22;10880;50.302;18.736;2023-01-01T12:46:23;17.60;59.10
21439;DHT22;10880;50.302;18.736;2023-01-01T12:49:52;17.60;59.10
21439;DHT22;10880;50.302;18.736;2023-01-01T12:52:13;17.60;59.00
21439;DHT22;10880;50.302;18.736;2023-01-01T12:57:54;17.60;58.50
21439;DHT22;10880;50.302;18.736;2023-01-01T13:00:21;17.60;58.90
21439;DHT22;10880;50.302;18.736;2023-01-01T13:02:51;17.60;58.60
21439;DHT22;10880;50.302;18.736;2023-01-01T13:05:33;17.60;59.00
21439;DHT22;10880;50.302;18.736;2023-01-01T13:08:04;17.60;58.90
21439;DHT22;10880;50.302;18.736;2023-01-01T13:10:46;17.60;58.90
21439;DHT22;10880;50.302;18.736;2023-01-01T13:13:14;17.60;58.90
21439;DHT22;10880;50.302;18.736;2023-01-01T13:20:45;17.50;58.20
21439;DHT22;10880;50.302;18.736;2023-01-01T13:34:35;17.40;58.00
21439;DHT22;10880;50.302;18.736;2023-01-01T13:40:00;17.40;58.10
21439;DHT22;10880;50.302;18.736;2023-01-01T13:45:40;17.30;58.50
21439;DHT22;10880;50.302;18.736;2023-01-01T13:48:19;17.30;58.50
21439;DHT22;10880;50.302;18.736;2023-01-01T13:54:21;17.20;58.50
21439;DHT22;10880;50.302;18.736;2023-01-01T14:05:13;17.10;58.40
21439;DHT22;10880;50.302;18.736;2023-01-01T14:07:52;17.00;58.30
21439;DHT22;10880;50.302;18.736;2023-01-01T14:10:27;17.00;58.30
21439;DHT22;10880;50.302;18.736;2023-01-01T14:13:12;17.00;58.40
21439;DHT22;10880;50.302;18.736;2023-01-01T14:15:57;16.90;58.40
21439;DHT22;10880;50.302;18.736;2023-01-01T14:18:38;16.90;58.40
21439;DHT22;10880;50.302;18.736;2023-01-01T14:21:17;16.90;58.40
21439;DHT22;10880;50.302;18.736;2023-01-01T14:23:52;16.90;58.40
21439;DHT22;10880;50.302;18.736;2023-01-01T14:26:21;16.80;58.30
21439;DHT22;10880;50.302;18.736;2023-01-01T14:28:52;16.80;58.40
21439;DHT22;10880;50.302;18.736;2023-01-01T14:31:23;16.80;58.40
21439;DHT22;10880;50.302;18.736;2023-01-01T14:33:51;16.80;58.30
21439;DHT22;10880;50.302;18.736;2023-01-01T14:36:23;16.70;58.10
21439;DHT22;10880;50.302;18.736;2023-01-01T14:38:52;16.70;58.40
21439;DHT22;10880;50.302;18.736;2023-01-01T14:41:37;16.70;58.40
21439;DHT22;10880;50.302;18.736;2023-01-01T14:44:16;16.70;58.40
21439;DHT22;10880;50.302;18.736;2023-01-01T14:46:50;16.60;58.30
21439;DHT22;10880;50.302;18.736;2023-01-01T14:49:25;16.60;58.30
21439;DHT22;10880;50.302;18.736;2023-01-01T14:52:06;16.60;58.50
21439;DHT22;10880;50.302;18.736;2023-01-01T14:54:37;16.50;58.30
21439;DHT22;10880;50.302;18.736;2023-01-01T14:57:14;16.50;58.30
21439;DHT22;10880;50.302;18.736;2023-01-01T14:59:48;16.50;58.30
21439;DHT22;10880;50.302;18.736;2023-01-01T15:02:19;16.40;58.30
21439;DHT22;10880;50.302;18.736;2023-01-01T15:04:47;16.40;58.30
21439;DHT22;10880;50.302;18.736;2023-01-01T15:07:20;16.20;58.90
21439;DHT22;10880;50.302;18.736;2023-01-01T15:09:48;16.20;58.80
21439;DHT22;10880;50.302;18.736;2023-01-01T15:12:15;16.20;58.80
21439;DHT22;10880;50.302;18.736;2023-01-01T15:14:53;16.20;58.50
21439;DHT22;10880;50.302;18.736;2023-01-01T15:17:25;16.20;58.70
21439;DHT22;10880;50.302;18.736;2023-01-01T15:20:20;16.20;58.70
21439;DHT22;10880;50.302;18.736;2023-01-01T15:22:48;16.20;58.60
21439;DHT22;10880;50.302;18.736;2023-01-01T15:25:18;16.20;58.60
21439;DHT22;10880;50.302;18.736;2023-01-01T15:27:50;16.20;58.60
21439;DHT22;10880;50.302;18.736;2023-01-01T15:30:29;16.10;58.60
21439;DHT22;10880;50.302;18.736;2023-01-01T15:33:13;16.10;58.50
21439;DHT22;10880;50.302;18.736;2023-01-01T15:35:48;16.10;58.60
21439;DHT22;10880;50.302;18.736;2023-01-01T15:38:38;16.10;58.60
21439;DHT22;10880;50.302;18.736;2023-01-01T15:44:27;16.00;58.60
21439;DHT22;10880;50.302;18.736;2023-01-01T15:47:10;16.00;58.60
21439;DHT22;10880;50.302;18.736;2023-01-01T15:49:38;15.90;58.60
21439;DHT22;10880;50.302;18.736;2023-01-01T15:52:18;16.00;58.20
21439;DHT22;10880;50.302;18.736;2023-01-01T15:54:48;15.90;58.70
21439;DHT22;10880;50.302;18.736;2023-01-01T15:57:21;15.90;58.40
21439;DHT22;10880;50.302;18.736;2023-01-01T15:59:50;15.90;58.60
21439;DHT22;10880;50.302;18.736;2023-01-01T16:02:29;15.80;58.60
21439;DHT22;10880;50.302;18.736;2023-01-01T16:04:57;15.80;58.70
21439;DHT22;10880;50.302;18.736;2023-01-01T16:07:25;15.80;58.70
21439;DHT22;10880;50.302;18.736;2023-01-01T16:09:54;15.80;59.30
21439;DHT22;10880;50.302;18.736;2023-01-01T16:12:20;15.70;58.20
21439;DHT22;10880;50.302;18.736;2023-01-01T16:14:47;15.70;58.20
21439;DHT22;10880;50.302;18.736;2023-01-01T16:17:18;15.70;58.50
21439;DHT22;10880;50.302;18.736;2023-01-01T16:19:46;15.60;58.80
21439;DHT22;10880;50.302;18.736;2023-01-01T16:22:16;15.60;58.60
21439;DHT22;10880;50.302;18.736;2023-01-01T16:24:44;15.60;58.80
21439;DHT22;10880;50.302;18.736;2023-01-01T16:27:10;15.60;58.30
21439;DHT22;10880;50.302;18.736;2023-01-01T16:29:37;15.60;58.50
21439;DHT22;10880;50.302;18.736;2023-01-01T16:32:04;15.60;58.80
21439;DHT22;10880;50.302;18.736;2023-01-01T16:34:33;15.50;58.70
21439;DHT22;10880;50.302;18.736;2023-01-01T16:36:59;15.50;58.50
21439;DHT22;10880;50.302;18.736;2023-01-01T16:39:25;15.50;58.50
21439;DHT22;10880;50.302;18.736;2023-01-01T16:41:53;15.50;58.50
21439;DHT22;10880;50.302;18.736;2023-01-01T16:44:21;15.50;59.00
21439;DHT22;10880;50.302;18.736;2023-01-01T16:46:48;15.50;58.70
21439;DHT22;10880;50.302;18.736;2023-01-01T16:49:15;15.40;58.50
21439;DHT22;10880;50.302;18.736;2023-01-01T16:51:43;15.40;58.60
21439;DHT22;10880;50.302;18.736;2023-01-01T16:54:10;15.40;58.80
21439;DHT22;10880;50.302;18.736;2023-01-01T16:56:36;15.40;59.10
21439;DHT22;10880;50.302;18.736;2023-01-01T16:59:03;15.40;58.80
21439;DHT22;10880;50.302;18.736;2023-01-01T17:01:30;15.40;58.70
21439;DHT22;10880;50.302;18.736;2023-01-01T17:03:56;15.40;59.10
21439;DHT22;10880;50.302;18.736;2023-01-01T17:06:23;15.40;58.80
21439;DHT22;10880;50.302;18.736;2023-01-01T17:08:49;15.40;58.70
21439;DHT22;10880;50.302;18.736;2023-01-01T17:11:17;15.40;58.80
21439;DHT22;10880;50.302;18.736;2023-01-01T17:13:47;15.30;59.60
21439;DHT22;10880;50.302;18.736;2023-01-01T17:16:16;15.30;58.70
21439;DHT22;10880;50.302;18.736;2023-01-01T17:18:47;15.30;59.10
21439;DHT22;10880;50.302;18.736;2023-01-01T17:21:14;15.30;59.10
21439;DHT22;10880;50.302;18.736;2023-01-01T17:23:41;15.20;58.60
21439;DHT22;10880;50.302;18.736;2023-01-01T17:26:16;15.20;58.60
21439;DHT22;10880;50.302;18.736;2023-01-01T17:28:46;15.20;59.20
21439;DHT22;10880;50.302;18.736;2023-01-01T17:31:15;15.20;58.70
21439;DHT22;10880;50.302;18.736;2023-01-01T17:33:42;15.20;59.10
21439;DHT22;10880;50.302;18.736;2023-01-01T17:36:09;15.10;58.60
21439;DHT22;10880;50.302;18.736;2023-01-01T17:38:36;15.10;58.80
21439;DHT22;10880;50.302;18.736;2023-01-01T17:41:09;15.10;59.20
21439;DHT22;10880;50.302;18.736;2023-01-01T17:43:40;15.00;58.70
21439;DHT22;10880;50.302;18.736;2023-01-01T17:46:12;15.10;59.20
21439;DHT22;10880;50.302;18.736;2023-01-01T17:48:40;15.00;59.20
21439;DHT22;10880;50.302;18.736;2023-01-01T17:51:07;15.00;59.30
21439;DHT22;10880;50.302;18.736;2023-01-01T17:53:37;15.00;59.30
21439;DHT22;10880;50.302;18.736;2023-01-01T17:56:09;14.90;58.90